sensor_id;sensor_type;location;lat;lon;timestamp;P1;durP1;ratioP1;P2;durP2;ratioP2
39410;SDS011;26579;43.238;23.124;2022-12-05T00:01:15;20.60;;;11.55;;
39410;SDS011;26579;43.238;23.124;2022-12-05T00:03:49;23.05;;;11.10;;
39410;SDS011;26579;43.238;23.124;2022-12-05T00:06:20;19.30;;;10.52;;
39410;SDS011;26579;43.238;23.124;2022-12-05T00:08:46;22.38;;;12.20;;
39410;SDS011;26579;43.238;23.124;2022-12-05T00:11:13;22.45;;;11.63;;
39410;SDS011;26579;43.238;23.124;2022-12-05T00:13:46;27.65;;;13.93;;
39410;SDS011;26579;43.238;23.124;2022-12-05T00:16:14;26.30;;;13.07;;
39410;SDS011;26579;43.238;23.124;2022-12-05T00:18:42;25.17;;;12.98;;
39410;SDS011;26579;43.238;23.124;2022-12-05T00:21:14;22.63;;;11.18;;
39410;SDS011;26579;43.238;23.124;2022-12-05T00:23:46;23.65;;;11.68;;
39410;SDS011;26579;43.238;23.124;2022-12-05T00:26:13;30.65;;;15.48;;
39410;SDS011;26579;43.238;23.124;2022-12-05T00:28:39;21.60;;;10.05;;
39410;SDS011;26579;43.238;23.124;2022-12-05T00:31:10;17.15;;;9.15;;
39410;SDS011;26579;43.238;23.124;2022-12-05T00:33:37;19.33;;;8.23;;
39410;SDS011;26579;43.238;23.124;2022-12-05T00:36:04;16.88;;;9.63;;
39410;SDS011;26579;43.238;23.124;2022-12-05T00:38:32;18.30;;;9.65;;
39410;SDS011;26579;43.238;23.124;2022-12-05T00:41:06;14.15;;;7.53;;
39410;SDS011;26579;43.238;23.124;2022-12-05T00:43:33;12.15;;;5.82;;
39410;SDS011;26579;43.238;23.124;2022-12-05T00:46:03;11.30;;;6.00;;
39410;SDS011;26579;43.238;23.124;2022-12-05T00:48:31;13.68;;;6.60;;
39410;SDS011;26579;43.238;23.124;2022-12-05T00:51:03;13.73;;;6.60;;
39410;SDS011;26579;43.238;23.124;2022-12-05T00:53:31;10.98;;;6.15;;
39410;SDS011;26579;43.238;23.124;2022-12-05T00:56:00;12.95;;;7.00;;
39410;SDS011;26579;43.238;23.124;2022-12-05T00:58:36;14.30;;;6.97;;
39410;SDS011;26579;43.238;23.124;2022-12-05T01:01:10;11.95;;;6.55;;
39410;SDS011;26579;43.238;23.124;2022-12-05T01:03:41;11.98;;;6.30;;
39410;SDS011;26579;43.238;23.124;2022-12-05T01:06:07;10.80;;;6.00;;
39410;SDS011;26579;43.238;23.124;2022-12-05T01:08:33;18.85;;;10.25;;
39410;SDS011;26579;43.238;23.124;2022-12-05T01:11:00;25.52;;;12.80;;
39410;SDS011;26579;43.238;23.124;2022-12-05T01:13:26;34.65;;;18.85;;
39410;SDS011;26579;43.238;23.124;2022-12-05T01:15:52;43.83;;;22.23;;
39410;SDS011;26579;43.238;23.124;2022-12-05T01:18:18;34.97;;;17.02;;
39410;SDS011;26579;43.238;23.124;2022-12-05T01:20:47;25.92;;;13.23;;
39410;SDS011;26579;43.238;23.124;2022-12-05T01:23:13;19.40;;;10.90;;
39410;SDS011;26579;43.238;23.124;2022-12-05T01:25:40;20.42;;;10.18;;
39410;SDS011;26579;43.238;23.124;2022-12-05T01:28:07;19.95;;;11.27;;
39410;SDS011;26579;43.238;23.124;2022-12-05T01:30:36;19.17;;;10.50;;
39410;SDS011;26579;43.238;23.124;2022-12-05T01:33:03;19.25;;;10.60;;
39410;SDS011;26579;43.238;23.124;2022-12-05T01:35:30;18.05;;;10.30;;
39410;SDS011;26579;43.238;23.124;2022-12-05T01:37:57;19.90;;;10.02;;
39410;SDS011;26579;43.238;23.124;2022-12-05T01:40:25;20.13;;;12.20;;
39410;SDS011;26579;43.238;23.124;2022-12-05T01:42:50;34.22;;;18.05;;
39410;SDS011;26579;43.238;23.124;2022-12-05T01:45:17;33.83;;;17.50;;
39410;SDS011;26579;43.238;23.124;2022-12-05T01:48:19;24.35;;;11.95;;
39410;SDS011;26579;43.238;23.124;2022-12-05T01:50:54;25.48;;;13.52;;
39410;SDS011;26579;43.238;23.124;2022-12-05T01:53:25;27.80;;;13.40;;
39410;SDS011;26579;43.238;23.124;2022-12-05T01:55:51;33.75;;;15.18;;
39410;SDS011;26579;43.238;23.124;2022-12-05T01:58:22;31.15;;;14.45;;
39410;SDS011;26579;43.238;23.124;2022-12-05T02:00:52;19.77;;;11.05;;
39410;SDS011;26579;43.238;23.124;2022-12-05T02:03:18;22.05;;;10.93;;
39410;SDS011;26579;43.238;23.124;2022-12-05T02:05:46;20.60;;;10.82;;
39410;SDS011;26579;43.238;23.124;2022-12-05T02:08:15;19.00;;;10.25;;
39410;SDS011;26579;43.238;23.124;2022-12-05T02:10:59;21.15;;;9.77;;
39410;SDS011;26579;43.238;23.124;2022-12-05T02:32:10;8.23;;;4.63;;
39410;SDS011;26579;43.238;23.124;2022-12-05T02:37:26;9.88;;;5.65;;
39410;SDS011;26579;43.238;23.124;2022-12-05T02:45:04;8.48;;;4.38;;
39410;SDS011;26579;43.238;23.124;2022-12-05T02:47:37;11.38;;;4.72;;
39410;SDS011;26579;43.238;23.124;2022-12-05T02:50:08;7.88;;;4.50;;
39410;SDS011;26579;43.238;23.124;2022-12-05T02:52:36;8.13;;;4.57;;
39410;SDS011;26579;43.238;23.124;2022-12-05T02:55:02;6.53;;;3.60;;
39410;SDS011;26579;43.238;23.124;2022-12-05T02:57:31;7.07;;;3.78;;
39410;SDS011;26579;43.238;23.124;2022-12-05T03:00:00;9.07;;;4.80;;
39410;SDS011;26579;43.238;23.124;2022-12-05T03:02:30;10.10;;;5.30;;
39410;SDS011;26579;43.238;23.124;2022-12-05T03:04:57;8.65;;;4.45;;
39410;SDS011;26579;43.238;23.124;2022-12-05T03:07:33;7.53;;;4.25;;
39410;SDS011;26579;43.238;23.124;2022-12-05T03:10:02;10.10;;;5.03;;
39410;SDS011;26579;43.238;23.124;2022-12-05T03:12:32;9.73;;;5.10;;
39410;SDS011;26579;43.238;23.124;2022-12-05T03:17:36;10.00;;;5.90;;
39410;SDS011;26579;43.238;23.124;2022-12-05T03:20:18;10.25;;;5.20;;
39410;SDS011;26579;43.238;23.124;2022-12-05T03:26:29;14.70;;;7.55;;
39410;SDS011;26579;43.238;23.124;2022-12-05T03:28:53;13.98;;;8.10;;
39410;SDS011;26579;43.238;23.124;2022-12-05T03:31:37;7.90;;;4.32;;
39410;SDS011;26579;43.238;23.124;2022-12-05T03:34:11;4.60;;;2.45;;
39410;SDS011;26579;43.238;23.124;2022-12-05T03:36:43;6.40;;;3.15;;
39410;SDS011;26579;43.238;23.124;2022-12-05T03:41:56;5.60;;;3.47;;
39410;SDS011;26579;43.238;23.124;2022-12-05T03:44:51;8.05;;;3.55;;
39410;SDS011;26579;43.238;23.124;2022-12-05T03:49:56;8.40;;;3.60;;
39410;SDS011;26579;43.238;23.124;2022-12-05T03:52:31;14.07;;;5.50;;
39410;SDS011;26579;43.238;23.124;2022-12-05T03:55:04;13.77;;;6.47;;
39410;SDS011;26579;43.238;23.124;2022-12-05T03:57:36;42.30;;;18.02;;
39410;SDS011;26579;43.238;23.124;2022-12-05T04:00:19;31.05;;;14.48;;
39410;SDS011;26579;43.238;23.124;2022-12-05T04:02:48;26.63;;;11.80;;
39410;SDS011;26579;43.238;23.124;2022-12-05T04:05:20;26.35;;;14.05;;
39410;SDS011;26579;43.238;23.124;2022-12-05T04:07:52;20.70;;;10.25;;
39410;SDS011;26579;43.238;23.124;2022-12-05T04:10:25;16.30;;;8.13;;
39410;SDS011;26579;43.238;23.124;2022-12-05T04:12:57;15.52;;;7.88;;
39410;SDS011;26579;43.238;23.124;2022-12-05T04:15:28;16.70;;;8.65;;
39410;SDS011;26579;43.238;23.124;2022-12-05T04:17:57;13.07;;;8.05;;
39410;SDS011;26579;43.238;23.124;2022-12-05T04:20:37;18.05;;;9.60;;
39410;SDS011;26579;43.238;23.124;2022-12-05T04:23:06;18.33;;;9.63;;
39410;SDS011;26579;43.238;23.124;2022-12-05T04:28:59;17.95;;;11.00;;
39410;SDS011;26579;43.238;23.124;2022-12-05T04:31:44;13.13;;;8.07;;
39410;SDS011;26579;43.238;23.124;2022-12-05T04:34:15;12.70;;;7.85;;
39410;SDS011;26579;43.238;23.124;2022-12-05T04:36:46;12.77;;;7.75;;
39410;SDS011;26579;43.238;23.124;2022-12-05T04:39:15;11.63;;;6.60;;
39410;SDS011;26579;43.238;23.124;2022-12-05T04:41:50;14.55;;;7.75;;
39410;SDS011;26579;43.238;23.124;2022-12-05T04:44:20;15.50;;;8.35;;
39410;SDS011;26579;43.238;23.124;2022-12-05T04:46:50;12.20;;;5.88;;
39410;SDS011;26579;43.238;23.124;2022-12-05T04:49:19;8.45;;;5.03;;
39410;SDS011;26579;43.238;23.124;2022-12-05T04:51:49;10.77;;;5.65;;
39410;SDS011;26579;43.238;23.124;2022-12-05T04:54:18;4.72;;;3.08;;
39410;SDS011;26579;43.238;23.124;2022-12-05T04:56:49;5.47;;;2.63;;
39410;SDS011;26579;43.238;23.124;2022-12-05T04:59:19;6.75;;;3.90;;
39410;SDS011;26579;43.238;23.124;2022-12-05T05:01:50;5.03;;;2.83;;
39410;SDS011;26579;43.238;23.124;2022-12-05T05:04:39;5.03;;;2.50;;
39410;SDS011;26579;43.238;23.124;2022-12-05T05:07:17;10.60;;;5.47;;
39410;SDS011;26579;43.238;23.124;2022-12-05T05:09:44;12.48;;;6.50;;
39410;SDS011;26579;43.238;23.124;2022-12-05T05:12:10;13.60;;;6.53;;
39410;SDS011;26579;43.238;23.124;2022-12-05T05:14:36;9.82;;;5.10;;
39410;SDS011;26579;43.238;23.124;2022-12-05T05:17:01;12.80;;;7.13;;
39410;SDS011;26579;43.238;23.124;2022-12-05T05:19:28;11.88;;;7.90;;
39410;SDS011;26579;43.238;23.124;2022-12-05T05:21:53;9.82;;;5.88;;
39410;SDS011;26579;43.238;23.124;2022-12-05T05:24:19;6.45;;;2.92;;
39410;SDS011;26579;43.238;23.124;2022-12-05T05:26:45;5.13;;;2.92;;
39410;SDS011;26579;43.238;23.124;2022-12-05T05:29:11;8.48;;;4.90;;
39410;SDS011;26579;43.238;23.124;2022-12-05T05:31:38;17.52;;;10.95;;
39410;SDS011;26579;43.238;23.124;2022-12-05T05:34:04;13.05;;;8.00;;
39410;SDS011;26579;43.238;23.124;2022-12-05T05:36:30;17.17;;;8.90;;
39410;SDS011;26579;43.238;23.124;2022-12-05T05:38:57;23.38;;;14.45;;
39410;SDS011;26579;43.238;23.124;2022-12-05T05:41:27;28.48;;;16.85;;
39410;SDS011;26579;43.238;23.124;2022-12-05T05:43:55;24.85;;;14.18;;
39410;SDS011;26579;43.238;23.124;2022-12-05T05:46:23;22.13;;;13.52;;
39410;SDS011;26579;43.238;23.124;2022-12-05T05:48:50;20.17;;;12.55;;
39410;SDS011;26579;43.238;23.124;2022-12-05T05:51:17;15.68;;;10.05;;
39410;SDS011;26579;43.238;23.124;2022-12-05T05:53:44;72.63;;;30.00;;
39410;SDS011;26579;43.238;23.124;2022-12-05T05:56:14;52.50;;;24.23;;
39410;SDS011;26579;43.238;23.124;2022-12-05T05:58:42;35.58;;;17.52;;
39410;SDS011;26579;43.238;23.124;2022-12-05T06:01:15;22.25;;;12.95;;
39410;SDS011;26579;43.238;23.124;2022-12-05T06:03:43;18.75;;;11.50;;
39410;SDS011;26579;43.238;23.124;2022-12-05T06:06:10;77.38;;;31.33;;
39410;SDS011;26579;43.238;23.124;2022-12-05T06:08:38;42.28;;;21.35;;
39410;SDS011;26579;43.238;23.124;2022-12-05T06:11:09;62.78;;;26.95;;
39410;SDS011;26579;43.238;23.124;2022-12-05T06:13:37;80.93;;;32.60;;
39410;SDS011;26579;43.238;23.124;2022-12-05T06:16:04;60.30;;;27.77;;
39410;SDS011;26579;43.238;23.124;2022-12-05T06:18:31;84.07;;;35.20;;
39410;SDS011;26579;43.238;23.124;2022-12-05T06:20:57;51.13;;;21.65;;
39410;SDS011;26579;43.238;23.124;2022-12-05T06:23:23;40.15;;;19.45;;
39410;SDS011;26579;43.238;23.124;2022-12-05T06:25:50;27.90;;;15.30;;
39410;SDS011;26579;43.238;23.124;2022-12-05T06:28:18;27.88;;;15.55;;
39410;SDS011;26579;43.238;23.124;2022-12-05T06:30:45;31.67;;;17.45;;
39410;SDS011;26579;43.238;23.124;2022-12-05T06:33:11;33.75;;;18.73;;
39410;SDS011;26579;43.238;23.124;2022-12-05T06:35:37;17.30;;;10.40;;
39410;SDS011;26579;43.238;23.124;2022-12-05T06:38:03;17.08;;;10.57;;
39410;SDS011;26579;43.238;23.124;2022-12-05T06:40:28;14.57;;;8.23;;
39410;SDS011;26579;43.238;23.124;2022-12-05T06:42:54;12.85;;;7.40;;
39410;SDS011;26579;43.238;23.124;2022-12-05T06:45:20;18.88;;;10.85;;
39410;SDS011;26579;43.238;23.124;2022-12-05T06:47:46;26.13;;;13.95;;
39410;SDS011;26579;43.238;23.124;2022-12-05T06:50:12;24.33;;;12.55;;
39410;SDS011;26579;43.238;23.124;2022-12-05T06:52:38;21.75;;;13.13;;
39410;SDS011;26579;43.238;23.124;2022-12-05T06:55:04;19.85;;;10.80;;
39410;SDS011;26579;43.238;23.124;2022-12-05T06:57:30;17.98;;;10.13;;
39410;SDS011;26579;43.238;23.124;2022-12-05T06:59:55;21.17;;;11.07;;
39410;SDS011;26579;43.238;23.124;2022-12-05T07:02:21;18.77;;;10.38;;
39410;SDS011;26579;43.238;23.124;2022-12-05T07:04:47;20.52;;;11.18;;
39410;SDS011;26579;43.238;23.124;2022-12-05T07:07:13;24.48;;;12.15;;
39410;SDS011;26579;43.238;23.124;2022-12-05T07:09:38;19.55;;;10.27;;
39410;SDS011;26579;43.238;23.124;2022-12-05T07:12:04;16.23;;;9.13;;
39410;SDS011;26579;43.238;23.124;2022-12-05T07:14:30;17.65;;;10.40;;
39410;SDS011;26579;43.238;23.124;2022-12-05T07:16:55;22.35;;;13.23;;
39410;SDS011;26579;43.238;23.124;2022-12-05T07:19:21;25.35;;;14.75;;
39410;SDS011;26579;43.238;23.124;2022-12-05T07:21:47;24.38;;;14.40;;
39410;SDS011;26579;43.238;23.124;2022-12-05T07:24:12;31.77;;;18.45;;
39410;SDS011;26579;43.238;23.124;2022-12-05T07:26:38;32.70;;;18.02;;
39410;SDS011;26579;43.238;23.124;2022-12-05T07:29:04;28.13;;;13.85;;
39410;SDS011;26579;43.238;23.124;2022-12-05T07:31:29;15.13;;;9.90;;
39410;SDS011;26579;43.238;23.124;2022-12-05T07:33:55;18.85;;;10.98;;
39410;SDS011;26579;43.238;23.124;2022-12-05T07:36:21;25.65;;;13.07;;
39410;SDS011;26579;43.238;23.124;2022-12-05T07:38:47;26.48;;;15.30;;
39410;SDS011;26579;43.238;23.124;2022-12-05T07:41:20;27.95;;;15.93;;
39410;SDS011;26579;43.238;23.124;2022-12-05T07:43:51;18.38;;;11.25;;
39410;SDS011;26579;43.238;23.124;2022-12-05T07:46:19;21.13;;;12.25;;
39410;SDS011;26579;43.238;23.124;2022-12-05T07:48:46;23.75;;;13.55;;
39410;SDS011;26579;43.238;23.124;2022-12-05T07:51:12;44.58;;;29.38;;
39410;SDS011;26579;43.238;23.124;2022-12-05T07:53:38;36.40;;;22.85;;
39410;SDS011;26579;43.238;23.124;2022-12-05T07:56:05;39.22;;;23.08;;
39410;SDS011;26579;43.238;23.124;2022-12-05T07:58:33;40.10;;;23.52;;
39410;SDS011;26579;43.238;23.124;2022-12-05T08:01:06;37.05;;;23.50;;
39410;SDS011;26579;43.238;23.124;2022-12-05T08:03:36;41.67;;;24.92;;
39410;SDS011;26579;43.238;23.124;2022-12-05T08:06:06;37.22;;;21.90;;
39410;SDS011;26579;43.238;23.124;2022-12-05T08:08:35;40.22;;;23.50;;
39410;SDS011;26579;43.238;23.124;2022-12-05T08:11:01;37.13;;;24.45;;
39410;SDS011;26579;43.238;23.124;2022-12-05T08:13:32;34.17;;;22.50;;
39410;SDS011;26579;43.238;23.124;2022-12-05T08:16:04;27.80;;;17.23;;
39410;SDS011;26579;43.238;23.124;2022-12-05T08:18:40;27.42;;;15.57;;
39410;SDS011;26579;43.238;23.124;2022-12-05T08:21:07;29.33;;;17.80;;
39410;SDS011;26579;43.238;23.124;2022-12-05T08:23:35;46.67;;;27.85;;
39410;SDS011;26579;43.238;23.124;2022-12-05T08:26:03;45.42;;;27.98;;
39410;SDS011;26579;43.238;23.124;2022-12-05T08:28:30;17.67;;;9.90;;
39410;SDS011;26579;43.238;23.124;2022-12-05T08:31:07;26.13;;;15.63;;
39410;SDS011;26579;43.238;23.124;2022-12-05T08:33:40;21.60;;;13.38;;
39410;SDS011;26579;43.238;23.124;2022-12-05T08:36:08;8.98;;;5.32;;
39410;SDS011;26579;43.238;23.124;2022-12-05T08:38:35;7.60;;;4.32;;
39410;SDS011;26579;43.238;23.124;2022-12-05T08:41:02;12.10;;;6.97;;
39410;SDS011;26579;43.238;23.124;2022-12-05T08:43:29;15.90;;;9.90;;
39410;SDS011;26579;43.238;23.124;2022-12-05T08:45:55;11.23;;;7.40;;
39410;SDS011;26579;43.238;23.124;2022-12-05T08:48:21;11.45;;;7.05;;
39410;SDS011;26579;43.238;23.124;2022-12-05T08:50:47;11.15;;;7.53;;
39410;SDS011;26579;43.238;23.124;2022-12-05T08:53:13;11.13;;;6.15;;
39410;SDS011;26579;43.238;23.124;2022-12-05T08:55:39;15.00;;;8.38;;
39410;SDS011;26579;43.238;23.124;2022-12-05T08:58:05;10.27;;;5.40;;
39410;SDS011;26579;43.238;23.124;2022-12-05T09:00:31;11.82;;;7.25;;
39410;SDS011;26579;43.238;23.124;2022-12-05T09:02:57;9.23;;;5.60;;
39410;SDS011;26579;43.238;23.124;2022-12-05T09:05:23;9.30;;;5.55;;
39410;SDS011;26579;43.238;23.124;2022-12-05T09:07:49;13.70;;;7.60;;
39410;SDS011;26579;43.238;23.124;2022-12-05T09:10:15;13.75;;;5.85;;
39410;SDS011;26579;43.238;23.124;2022-12-05T09:12:41;6.70;;;4.22;;
39410;SDS011;26579;43.238;23.124;2022-12-05T09:15:08;9.38;;;5.43;;
39410;SDS011;26579;43.238;23.124;2022-12-05T09:17:35;17.10;;;10.90;;
39410;SDS011;26579;43.238;23.124;2022-12-05T09:20:01;25.13;;;13.88;;
39410;SDS011;26579;43.238;23.124;2022-12-05T09:22:27;17.98;;;10.48;;
39410;SDS011;26579;43.238;23.124;2022-12-05T09:24:52;8.40;;;4.93;;
39410;SDS011;26579;43.238;23.124;2022-12-05T09:27:18;12.88;;;8.45;;
39410;SDS011;26579;43.238;23.124;2022-12-05T09:29:44;10.77;;;7.28;;
39410;SDS011;26579;43.238;23.124;2022-12-05T09:32:09;10.98;;;6.28;;
39410;SDS011;26579;43.238;23.124;2022-12-05T09:34:36;11.20;;;6.55;;
39410;SDS011;26579;43.238;23.124;2022-12-05T09:37:05;10.77;;;6.63;;
39410;SDS011;26579;43.238;23.124;2022-12-05T09:39:32;9.63;;;5.22;;
39410;SDS011;26579;43.238;23.124;2022-12-05T09:44:52;8.00;;;4.63;;
39410;SDS011;26579;43.238;23.124;2022-12-05T09:58:10;11.55;;;6.55;;
39410;SDS011;26579;43.238;23.124;2022-12-05T10:00:53;11.82;;;7.78;;
39410;SDS011;26579;43.238;23.124;2022-12-05T10:03:42;29.02;;;15.85;;
39410;SDS011;26579;43.238;23.124;2022-12-05T10:06:23;16.60;;;8.60;;
39410;SDS011;26579;43.238;23.124;2022-12-05T10:14:07;18.45;;;10.02;;
39410;SDS011;26579;43.238;23.124;2022-12-05T10:16:47;21.38;;;14.82;;
39410;SDS011;26579;43.238;23.124;2022-12-05T10:19:21;15.10;;;8.65;;
39410;SDS011;26579;43.238;23.124;2022-12-05T10:24:40;14.05;;;9.07;;
39410;SDS011;26579;43.238;23.124;2022-12-05T10:27:19;17.08;;;9.57;;
39410;SDS011;26579;43.238;23.124;2022-12-05T10:30:14;17.40;;;8.60;;
39410;SDS011;26579;43.238;23.124;2022-12-05T10:37:59;20.25;;;11.23;;
39410;SDS011;26579;43.238;23.124;2022-12-05T10:40:39;19.88;;;12.93;;
39410;SDS011;26579;43.238;23.124;2022-12-05T10:43:09;16.88;;;11.00;;
39410;SDS011;26579;43.238;23.124;2022-12-05T10:45:40;18.00;;;10.32;;
39410;SDS011;26579;43.238;23.124;2022-12-05T10:48:13;17.88;;;10.40;;
39410;SDS011;26579;43.238;23.124;2022-12-05T10:50:41;19.88;;;11.32;;
39410;SDS011;26579;43.238;23.124;2022-12-05T10:53:12;17.05;;;9.32;;
39410;SDS011;26579;43.238;23.124;2022-12-05T10:55:42;16.38;;;8.90;;
39410;SDS011;26579;43.238;23.124;2022-12-05T10:58:16;16.08;;;8.93;;
39410;SDS011;26579;43.238;23.124;2022-12-05T11:00:53;16.80;;;8.45;;
39410;SDS011;26579;43.238;23.124;2022-12-05T11:05:54;17.17;;;9.55;;
39410;SDS011;26579;43.238;23.124;2022-12-05T11:08:27;15.25;;;10.07;;
39410;SDS011;26579;43.238;23.124;2022-12-05T11:11:05;17.00;;;11.02;;
39410;SDS011;26579;43.238;23.124;2022-12-05T11:16:52;21.02;;;13.25;;
39410;SDS011;26579;43.238;23.124;2022-12-05T11:21:46;33.13;;;19.73;;
39410;SDS011;26579;43.238;23.124;2022-12-05T11:26:53;23.05;;;14.38;;
39410;SDS011;26579;43.238;23.124;2022-12-05T11:29:36;27.73;;;16.27;;
39410;SDS011;26579;43.238;23.124;2022-12-05T11:32:03;240.10;;;99.88;;
39410;SDS011;26579;43.238;23.124;2022-12-05T11:34:41;83.47;;;36.97;;
39410;SDS011;26579;43.238;23.124;2022-12-05T11:37:43;17.13;;;10.32;;
39410;SDS011;26579;43.238;23.124;2022-12-05T11:40:17;26.45;;;17.23;;
39410;SDS011;26579;43.238;23.124;2022-12-05T11:59:13;17.60;;;10.90;;
39410;SDS011;26579;43.238;23.124;2022-12-05T12:05:01;19.35;;;12.07;;
39410;SDS011;26579;43.238;23.124;2022-12-05T12:07:52;17.42;;;10.07;;
39410;SDS011;26579;43.238;23.124;2022-12-05T12:21:15;25.98;;;14.88;;
39410;SDS011;26579;43.238;23.124;2022-12-05T12:23:59;23.80;;;14.05;;
39410;SDS011;26579;43.238;23.124;2022-12-05T12:31:49;23.67;;;12.98;;
39410;SDS011;26579;43.238;23.124;2022-12-05T12:36:52;38.25;;;22.80;;
39410;SDS011;26579;43.238;23.124;2022-12-05T12:39:37;69.07;;;32.00;;
39410;SDS011;26579;43.238;23.124;2022-12-05T13:03:38;24.33;;;12.88;;
39410;SDS011;26579;43.238;23.124;2022-12-05T13:06:28;18.60;;;10.13;;
39410;SDS011;26579;43.238;23.124;2022-12-05T13:09:17;20.80;;;11.60;;
39410;SDS011;26579;43.238;23.124;2022-12-05T13:11:53;24.05;;;13.20;;
39410;SDS011;26579;43.238;23.124;2022-12-05T13:14:24;22.42;;;10.88;;
39410;SDS011;26579;43.238;23.124;2022-12-05T13:16:52;23.67;;;11.35;;
39410;SDS011;26579;43.238;23.124;2022-12-05T13:19:23;26.35;;;13.15;;
39410;SDS011;26579;43.238;23.124;2022-12-05T13:21:49;29.70;;;16.85;;
39410;SDS011;26579;43.238;23.124;2022-12-05T13:24:16;21.73;;;11.80;;
39410;SDS011;26579;43.238;23.124;2022-12-05T13:26:45;30.98;;;14.80;;
39410;SDS011;26579;43.238;23.124;2022-12-05T13:29:23;32.22;;;17.00;;
39410;SDS011;26579;43.238;23.124;2022-12-05T13:32:03;24.15;;;13.95;;
39410;SDS011;26579;43.238;23.124;2022-12-05T13:36:56;12.77;;;6.55;;
39410;SDS011;26579;43.238;23.124;2022-12-05T13:39:23;12.68;;;6.68;;
39410;SDS011;26579;43.238;23.124;2022-12-05T13:41:51;10.07;;;6.00;;
39410;SDS011;26579;43.238;23.124;2022-12-05T13:44:25;12.05;;;7.30;;
39410;SDS011;26579;43.238;23.124;2022-12-05T13:46:57;12.95;;;8.38;;
39410;SDS011;26579;43.238;23.124;2022-12-05T13:49:28;13.45;;;7.70;;
39410;SDS011;26579;43.238;23.124;2022-12-05T13:52:05;17.13;;;9.97;;
39410;SDS011;26579;43.238;23.124;2022-12-05T13:54:34;15.52;;;7.63;;
39410;SDS011;26579;43.238;23.124;2022-12-05T13:57:08;11.90;;;5.40;;
39410;SDS011;26579;43.238;23.124;2022-12-05T14:00:03;9.55;;;5.13;;
39410;SDS011;26579;43.238;23.124;2022-12-05T14:02:47;9.70;;;6.38;;
39410;SDS011;26579;43.238;23.124;2022-12-05T14:07:46;9.85;;;5.53;;
39410;SDS011;26579;43.238;23.124;2022-12-05T14:10:15;9.93;;;5.00;;
39410;SDS011;26579;43.238;23.124;2022-12-05T14:15:39;15.18;;;8.98;;
39410;SDS011;26579;43.238;23.124;2022-12-05T14:18:17;11.45;;;5.82;;
39410;SDS011;26579;43.238;23.124;2022-12-05T14:36:50;29.13;;;15.93;;
39410;SDS011;26579;43.238;23.124;2022-12-05T14:39:35;35.38;;;19.80;;
39410;SDS011;26579;43.238;23.124;2022-12-05T14:44:46;31.73;;;20.55;;
39410;SDS011;26579;43.238;23.124;2022-12-05T14:47:18;29.23;;;16.75;;
39410;SDS011;26579;43.238;23.124;2022-12-05T14:50:21;34.90;;;18.95;;
39410;SDS011;26579;43.238;23.124;2022-12-05T14:52:36;28.15;;;17.55;;
39410;SDS011;26579;43.238;23.124;2022-12-05T14:55:09;49.38;;;26.85;;
39410;SDS011;26579;43.238;23.124;2022-12-05T14:57:46;46.40;;;28.13;;
39410;SDS011;26579;43.238;23.124;2022-12-05T15:02:45;34.72;;;22.35;;
39410;SDS011;26579;43.238;23.124;2022-12-05T15:05:45;36.58;;;22.45;;
39410;SDS011;26579;43.238;23.124;2022-12-05T15:08:08;51.90;;;25.30;;
39410;SDS011;26579;43.238;23.124;2022-12-05T15:10:39;47.50;;;27.73;;
39410;SDS011;26579;43.238;23.124;2022-12-05T15:13:11;36.63;;;20.80;;
39410;SDS011;26579;43.238;23.124;2022-12-05T15:31:35;17.52;;;9.73;;
39410;SDS011;26579;43.238;23.124;2022-12-05T15:34:06;46.70;;;23.27;;
39410;SDS011;26579;43.238;23.124;2022-12-05T15:39:18;24.33;;;14.07;;
39410;SDS011;26579;43.238;23.124;2022-12-05T15:41:46;21.45;;;14.15;;
39410;SDS011;26579;43.238;23.124;2022-12-05T15:44:12;23.50;;;11.35;;
39410;SDS011;26579;43.238;23.124;2022-12-05T15:46:37;17.95;;;8.27;;
39410;SDS011;26579;43.238;23.124;2022-12-05T15:49:14;16.63;;;8.73;;
39410;SDS011;26579;43.238;23.124;2022-12-05T15:51:42;14.80;;;8.45;;
39410;SDS011;26579;43.238;23.124;2022-12-05T15:54:12;12.63;;;7.07;;
39410;SDS011;26579;43.238;23.124;2022-12-05T15:59:41;16.50;;;9.75;;
39410;SDS011;26579;43.238;23.124;2022-12-05T16:02:32;37.78;;;20.83;;
39410;SDS011;26579;43.238;23.124;2022-12-05T16:05:24;40.20;;;21.80;;
39410;SDS011;26579;43.238;23.124;2022-12-05T16:07:57;34.80;;;19.45;;
39410;SDS011;26579;43.238;23.124;2022-12-05T16:10:25;32.42;;;19.83;;
39410;SDS011;26579;43.238;23.124;2022-12-05T16:12:51;41.20;;;23.48;;
39410;SDS011;26579;43.238;23.124;2022-12-05T16:15:24;41.28;;;21.55;;
39410;SDS011;26579;43.238;23.124;2022-12-05T16:17:52;35.40;;;19.35;;
39410;SDS011;26579;43.238;23.124;2022-12-05T16:20:21;37.78;;;19.77;;
39410;SDS011;26579;43.238;23.124;2022-12-05T16:22:52;43.17;;;22.95;;
39410;SDS011;26579;43.238;23.124;2022-12-05T16:25:24;32.47;;;18.05;;
39410;SDS011;26579;43.238;23.124;2022-12-05T16:30:21;33.47;;;17.65;;
39410;SDS011;26579;43.238;23.124;2022-12-05T16:32:56;34.75;;;19.42;;
39410;SDS011;26579;43.238;23.124;2022-12-05T16:35:30;41.47;;;22.77;;
39410;SDS011;26579;43.238;23.124;2022-12-05T16:43:16;56.30;;;33.60;;
39410;SDS011;26579;43.238;23.124;2022-12-05T16:45:43;64.57;;;36.35;;
39410;SDS011;26579;43.238;23.124;2022-12-05T16:53:37;53.55;;;29.92;;
39410;SDS011;26579;43.238;23.124;2022-12-05T16:59:00;62.03;;;33.00;;
39410;SDS011;26579;43.238;23.124;2022-12-05T17:01:27;61.20;;;32.42;;
39410;SDS011;26579;43.238;23.124;2022-12-05T17:03:53;45.28;;;24.70;;
39410;SDS011;26579;43.238;23.124;2022-12-05T17:06:20;30.80;;;16.15;;
39410;SDS011;26579;43.238;23.124;2022-12-05T17:08:47;29.20;;;17.00;;
39410;SDS011;26579;43.238;23.124;2022-12-05T17:11:18;23.90;;;14.32;;
39410;SDS011;26579;43.238;23.124;2022-12-05T17:13:44;24.83;;;15.07;;
39410;SDS011;26579;43.238;23.124;2022-12-05T17:16:11;29.13;;;18.02;;
39410;SDS011;26579;43.238;23.124;2022-12-05T17:18:36;42.33;;;25.90;;
39410;SDS011;26579;43.238;23.124;2022-12-05T17:21:02;51.70;;;32.55;;
39410;SDS011;26579;43.238;23.124;2022-12-05T17:23:28;48.53;;;29.85;;
39410;SDS011;26579;43.238;23.124;2022-12-05T17:25:54;47.45;;;29.27;;
39410;SDS011;26579;43.238;23.124;2022-12-05T17:28:22;44.17;;;27.13;;
39410;SDS011;26579;43.238;23.124;2022-12-05T17:30:49;55.30;;;32.58;;
39410;SDS011;26579;43.238;23.124;2022-12-05T17:33:15;44.95;;;28.10;;
39410;SDS011;26579;43.238;23.124;2022-12-05T17:35:42;33.83;;;20.67;;
39410;SDS011;26579;43.238;23.124;2022-12-05T17:38:10;33.22;;;19.58;;
39410;SDS011;26579;43.238;23.124;2022-12-05T17:40:36;38.15;;;22.60;;
39410;SDS011;26579;43.238;23.124;2022-12-05T17:43:03;44.33;;;29.65;;
39410;SDS011;26579;43.238;23.124;2022-12-05T17:45:29;46.33;;;28.02;;
39410;SDS011;26579;43.238;23.124;2022-12-05T17:47:55;36.65;;;21.45;;
39410;SDS011;26579;43.238;23.124;2022-12-05T17:50:22;32.28;;;18.65;;
39410;SDS011;26579;43.238;23.124;2022-12-05T17:52:49;36.97;;;22.50;;
39410;SDS011;26579;43.238;23.124;2022-12-05T17:55:22;39.30;;;23.23;;
39410;SDS011;26579;43.238;23.124;2022-12-05T17:57:50;38.97;;;24.50;;
39410;SDS011;26579;43.238;23.124;2022-12-05T18:00:17;39.70;;;21.48;;